sensor_id;sensor_type;location;lat;lon;timestamp;noise_LAeq;noise_LA_min;noise_LA_max;noise_LA01;noise_LA95
66463;Laerm;56827;52.178;4.500;2024-02-28T00:00:05;32.05;30.52;33.25;;
66463;Laerm;56827;52.178;4.500;2024-02-28T00:00:15;32.11;30.40;34.17;;
66463;Laerm;56827;52.178;4.500;2024-02-28T00:00:26;32.49;31.19;36.51;;
66463;Laerm;56827;52.178;4.500;2024-02-28T00:00:36;33.22;31.27;37.92;;
66463;Laerm;56827;52.178;4.500;2024-02-28T00:00:46;32.76;30.63;36.96;;
66463;Laerm;56827;52.178;4.500;2024-02-28T00:00:56;32.30;30.63;36.63;;
66463;Laerm;56827;52.178;4.500;2024-02-28T00:01:07;32.17;30.78;34.52;;
66463;Laerm;56827;52.178;4.500;2024-02-28T00:01:17;32.59;31.06;34.73;;
66463;Laerm;56827;52.178;4.500;2024-02-28T00:01:27;32.69;30.91;37.17;;
66463;Laerm;56827;52.178;4.500;2024-02-28T00:01:37;32.52;31.13;36.88;;
66463;Laerm;56827;52.178;4.500;2024-02-28T00:01:48;32.27;30.51;35.69;;
66463;Laerm;56827;52.178;4.500;2024-02-28T00:01:59;33.48;30.80;47.38;;
66463;Laerm;56827;52.178;4.500;2024-02-28T00:02:09;32.32;30.74;36.73;;
66463;Laerm;56827;52.178;4.500;2024-02-28T00:02:19;32.34;30.86;36.75;;
66463;Laerm;56827;52.178;4.500;2024-02-28T00:02:30;32.01;30.52;33.56;;
66463;Laerm;56827;52.178;4.500;2024-02-28T00:02:40;32.04;30.18;35.65;;
66463;Laerm;56827;52.178;4.500;2024-02-28T00:02:50;32.26;30.72;33.64;;
66463;Laerm;56827;52.178;4.500;2024-02-28T00:03:00;31.91;30.48;35.69;;
66463;Laerm;56827;52.178;4.500;2024-02-28T00:03:11;32.55;30.44;40.39;;
66463;Laerm;56827;52.178;4.500;2024-02-28T00:03:21;32.03;30.36;35.67;;
66463;Laerm;56827;52.178;4.500;2024-02-28T00:03:33;33.07;31.18;36.52;;
66463;Laerm;56827;52.178;4.500;2024-02-28T00:03:44;32.94;31.36;36.11;;
66463;Laerm;56827;52.178;4.500;2024-02-28T00:03:54;32.50;30.66;35.11;;
66463;Laerm;56827;52.178;4.500;2024-02-28T00:04:04;32.71;31.12;34.60;;
66463;Laerm;56827;52.178;4.500;2024-02-28T00:04:15;33.02;31.35;35.88;;
66463;Laerm;56827;52.178;4.500;2024-02-28T00:04:25;32.80;30.35;36.03;;
66463;Laerm;56827;52.178;4.500;2024-02-28T00:04:35;32.89;30.88;34.85;;
66463;Laerm;56827;52.178;4.500;2024-02-28T00:04:46;32.74;31.24;35.01;;
66463;Laerm;56827;52.178;4.500;2024-02-28T00:04:57;32.41;30.93;35.09;;
66463;Laerm;56827;52.178;4.500;2024-02-28T00:05:10;32.17;30.40;36.54;;
66463;Laerm;56827;52.178;4.500;2024-02-28T00:05:20;32.35;30.94;35.66;;
66463;Laerm;56827;52.178;4.500;2024-02-28T00:05:31;32.19;30.73;33.73;;
66463;Laerm;56827;52.178;4.500;2024-02-28T00:05:41;32.01;30.69;34.68;;
66463;Laerm;56827;52.178;4.500;2024-02-28T00:05:52;32.39;30.86;35.90;;
66463;Laerm;56827;52.178;4.500;2024-02-28T00:06:02;32.48;30.72;34.99;;
66463;Laerm;56827;52.178;4.500;2024-02-28T00:06:12;32.18;30.32;33.98;;
66463;Laerm;56827;52.178;4.500;2024-02-28T00:06:25;32.51;30.92;37.75;;
66463;Laerm;56827;52.178;4.500;2024-02-28T00:06:35;32.80;30.67;35.59;;
66463;Laerm;56827;52.178;4.500;2024-02-28T00:06:45;34.79;32.87;36.59;;
66463;Laerm;56827;52.178;4.500;2024-02-28T00:06:59;32.53;30.68;35.10;;
66463;Laerm;56827;52.178;4.500;2024-02-28T00:07:09;32.26;30.68;37.40;;
66463;Laerm;56827;52.178;4.500;2024-02-28T00:07:19;32.39;30.98;35.67;;
66463;Laerm;56827;52.178;4.500;2024-02-28T00:07:29;33.67;31.03;37.87;;
66463;Laerm;56827;52.178;4.500;2024-02-28T00:07:40;39.03;34.39;46.68;;
66463;Laerm;56827;52.178;4.500;2024-02-28T00:07:50;38.06;33.14;45.49;;
66463;Laerm;56827;52.178;4.500;2024-02-28T00:08:03;32.89;30.90;36.62;;
66463;Laerm;56827;52.178;4.500;2024-02-28T00:08:13;32.88;31.39;34.33;;
66463;Laerm;56827;52.178;4.500;2024-02-28T00:08:23;32.84;31.01;34.50;;
66463;Laerm;56827;52.178;4.500;2024-02-28T00:08:34;33.75;32.14;35.24;;
66463;Laerm;56827;52.178;4.500;2024-02-28T00:08:44;33.13;31.13;34.92;;
66463;Laerm;56827;52.178;4.500;2024-02-28T00:08:55;33.84;32.49;37.40;;
66463;Laerm;56827;52.178;4.500;2024-02-28T00:09:05;32.82;31.06;35.19;;
66463;Laerm;56827;52.178;4.500;2024-02-28T00:09:16;32.21;30.73;35.19;;
66463;Laerm;56827;52.178;4.500;2024-02-28T00:09:26;32.92;30.96;37.17;;
66463;Laerm;56827;52.178;4.500;2024-02-28T00:09:37;33.80;31.60;36.40;;
66463;Laerm;56827;52.178;4.500;2024-02-28T00:09:47;32.98;31.25;35.62;;
66463;Laerm;56827;52.178;4.500;2024-02-28T00:09:57;32.63;31.12;34.05;;
66463;Laerm;56827;52.178;4.500;2024-02-28T00:10:08;32.57;30.91;36.32;;
66463;Laerm;56827;52.178;4.500;2024-02-28T00:10:18;32.50;30.44;35.76;;
66463;Laerm;56827;52.178;4.500;2024-02-28T00:10:28;31.85;30.34;37.08;;
66463;Laerm;56827;52.178;4.500;2024-02-28T00:10:39;31.84;30.67;33.52;;
66463;Laerm;56827;52.178;4.500;2024-02-28T00:10:49;32.20;30.53;36.29;;
66463;Laerm;56827;52.178;4.500;2024-02-28T00:10:59;31.48;29.71;33.15;;
66463;Laerm;56827;52.178;4.500;2024-02-28T00:11:12;31.32;29.54;34.63;;
66463;Laerm;56827;52.178;4.500;2024-02-28T00:11:22;31.41;30.04;35.10;;
66463;Laerm;56827;52.178;4.500;2024-02-28T00:11:32;31.59;30.18;36.13;;
66463;Laerm;56827;52.178;4.500;2024-02-28T00:11:43;32.63;30.28;35.98;;
66463;Laerm;56827;52.178;4.500;2024-02-28T00:11:54;35.79;31.08;48.05;;
66463;Laerm;56827;52.178;4.500;2024-02-28T00:12:05;42.83;32.89;56.35;;
66463;Laerm;56827;52.178;4.500;2024-02-28T00:12:15;36.42;30.69;48.30;;
66463;Laerm;56827;52.178;4.500;2024-02-28T00:12:25;32.47;30.38;37.47;;
66463;Laerm;56827;52.178;4.500;2024-02-28T00:12:36;31.59;29.66;33.18;;
66463;Laerm;56827;52.178;4.500;2024-02-28T00:12:46;31.57;30.10;36.25;;
66463;Laerm;56827;52.178;4.500;2024-02-28T00:12:56;32.00;30.43;35.26;;
66463;Laerm;56827;52.178;4.500;2024-02-28T00:13:06;31.96;29.81;35.14;;
66463;Laerm;56827;52.178;4.500;2024-02-28T00:13:17;32.08;29.69;34.12;;
66463;Laerm;56827;52.178;4.500;2024-02-28T00:13:27;31.91;30.22;36.53;;
66463;Laerm;56827;52.178;4.500;2024-02-28T00:13:37;31.91;30.68;34.17;;
66463;Laerm;56827;52.178;4.500;2024-02-28T00:13:47;32.33;30.56;34.74;;
66463;Laerm;56827;52.178;4.500;2024-02-28T00:13:58;32.42;30.85;35.71;;
66463;Laerm;56827;52.178;4.500;2024-02-28T00:14:10;31.99;30.56;35.45;;
66463;Laerm;56827;52.178;4.500;2024-02-28T00:14:20;31.96;30.41;35.54;;
66463;Laerm;56827;52.178;4.500;2024-02-28T00:14:31;31.61;30.20;35.53;;
66463;Laerm;56827;52.178;4.500;2024-02-28T00:14:41;31.74;29.81;37.05;;
66463;Laerm;56827;52.178;4.500;2024-02-28T00:14:51;31.57;30.34;36.48;;
66463;Laerm;56827;52.178;4.500;2024-02-28T00:15:01;31.43;30.31;32.89;;
66463;Laerm;56827;52.178;4.500;2024-02-28T00:15:12;31.69;30.33;33.16;;
66463;Laerm;56827;52.178;4.500;2024-02-28T00:15:22;31.84;29.94;33.65;;
66463;Laerm;56827;52.178;4.500;2024-02-28T00:15:32;32.65;30.56;34.70;;
66463;Laerm;56827;52.178;4.500;2024-02-28T00:15:43;33.51;30.78;37.10;;
66463;Laerm;56827;52.178;4.500;2024-02-28T00:15:53;32.32;31.06;35.71;;
66463;Laerm;56827;52.178;4.500;2024-02-28T00:16:03;32.28;30.90;36.84;;
66463;Laerm;56827;52.178;4.500;2024-02-28T00:16:13;32.77;31.14;34.50;;
66463;Laerm;56827;52.178;4.500;2024-02-28T00:16:23;32.10;30.55;34.93;;
66463;Laerm;56827;52.178;4.500;2024-02-28T00:16:34;31.79;30.15;36.06;;
66463;Laerm;56827;52.178;4.500;2024-02-28T00:16:44;32.15;30.56;35.89;;
66463;Laerm;56827;52.178;4.500;2024-02-28T00:16:55;32.02;30.37;34.76;;
66463;Laerm;56827;52.178;4.500;2024-02-28T00:17:05;31.75;29.90;36.53;;
66463;Laerm;56827;52.178;4.500;2024-02-28T00:17:15;31.31;29.93;33.96;;
66463;Laerm;56827;52.178;4.500;2024-02-28T00:17:25;31.46;30.11;33.32;;
66463;Laerm;56827;52.178;4.500;2024-02-28T00:17:39;31.62;30.48;33.16;;
66463;Laerm;56827;52.178;4.500;2024-02-28T00:17:51;31.80;30.55;36.85;;
66463;Laerm;56827;52.178;4.500;2024-02-28T00:18:02;31.77;30.52;35.68;;
66463;Laerm;56827;52.178;4.500;2024-02-28T00:18:13;31.83;29.97;34.19;;
66463;Laerm;56827;52.178;4.500;2024-02-28T00:18:23;32.14;30.76;34.17;;
66463;Laerm;56827;52.178;4.500;2024-02-28T00:18:34;32.22;30.47;36.81;;
66463;Laerm;56827;52.178;4.500;2024-02-28T00:18:44;32.11;30.24;33.46;;
66463;Laerm;56827;52.178;4.500;2024-02-28T00:18:54;32.25;30.64;36.96;;
66463;Laerm;56827;52.178;4.500;2024-02-28T00:19:04;32.27;30.87;35.10;;
66463;Laerm;56827;52.178;4.500;2024-02-28T00:19:15;32.41;30.88;36.10;;
66463;Laerm;56827;52.178;4.500;2024-02-28T00:19:27;33.24;31.77;35.03;;
66463;Laerm;56827;52.178;4.500;2024-02-28T00:19:39;34.74;32.08;38.99;;
66463;Laerm;56827;52.178;4.500;2024-02-28T00:19:49;40.37;33.20;49.77;;
66463;Laerm;56827;52.178;4.500;2024-02-28T00:19:59;46.15;38.91;52.32;;
66463;Laerm;56827;52.178;4.500;2024-02-28T00:20:10;44.69;37.26;55.76;;
66463;Laerm;56827;52.178;4.500;2024-02-28T00:20:21;41.42;34.66;48.56;;
66463;Laerm;56827;52.178;4.500;2024-02-28T00:20:32;40.21;34.05;47.67;;
66463;Laerm;56827;52.178;4.500;2024-02-28T00:20:45;37.42;32.24;42.43;;
66463;Laerm;56827;52.178;4.500;2024-02-28T00:20:56;35.46;32.37;39.94;;
66463;Laerm;56827;52.178;4.500;2024-02-28T00:21:06;33.62;31.38;35.80;;
66463;Laerm;56827;52.178;4.500;2024-02-28T00:21:16;33.24;31.09;37.75;;
66463;Laerm;56827;52.178;4.500;2024-02-28T00:21:27;33.07;31.33;36.10;;
66463;Laerm;56827;52.178;4.500;2024-02-28T00:21:37;32.92;31.17;36.52;;
66463;Laerm;56827;52.178;4.500;2024-02-28T00:21:47;33.24;31.69;36.24;;
66463;Laerm;56827;52.178;4.500;2024-02-28T00:21:59;34.30;31.77;37.92;;
66463;Laerm;56827;52.178;4.500;2024-02-28T00:22:10;34.04;30.99;36.26;;
66463;Laerm;56827;52.178;4.500;2024-02-28T00:22:20;32.90;31.51;34.71;;
66463;Laerm;56827;52.178;4.500;2024-02-28T00:22:30;33.03;31.04;34.60;;
66463;Laerm;56827;52.178;4.500;2024-02-28T00:22:41;32.62;30.80;36.56;;
66463;Laerm;56827;52.178;4.500;2024-02-28T00:22:52;32.90;30.65;36.41;;
66463;Laerm;56827;52.178;4.500;2024-02-28T00:23:03;32.72;31.16;35.24;;
66463;Laerm;56827;52.178;4.500;2024-02-28T00:23:13;32.33;30.56;34.52;;
66463;Laerm;56827;52.178;4.500;2024-02-28T00:23:23;32.73;31.07;36.18;;
66463;Laerm;56827;52.178;4.500;2024-02-28T00:23:33;32.37;30.95;35.98;;
66463;Laerm;56827;52.178;4.500;2024-02-28T00:23:44;32.15;30.40;35.74;;
66463;Laerm;56827;52.178;4.500;2024-02-28T00:23:54;32.05;30.80;33.89;;
66463;Laerm;56827;52.178;4.500;2024-02-28T00:24:04;32.32;31.03;34.84;;
66463;Laerm;56827;52.178;4.500;2024-02-28T00:24:14;32.32;30.61;36.55;;
66463;Laerm;56827;52.178;4.500;2024-02-28T00:24:25;32.33;30.60;34.97;;
66463;Laerm;56827;52.178;4.500;2024-02-28T00:24:35;34.01;31.47;39.00;;
66463;Laerm;56827;52.178;4.500;2024-02-28T00:24:45;32.61;31.10;37.30;;
66463;Laerm;56827;52.178;4.500;2024-02-28T00:24:56;32.19;30.15;36.74;;
66463;Laerm;56827;52.178;4.500;2024-02-28T00:25:06;32.08;30.49;35.45;;
66463;Laerm;56827;52.178;4.500;2024-02-28T00:25:16;32.13;30.73;34.67;;
66463;Laerm;56827;52.178;4.500;2024-02-28T00:25:26;32.12;30.73;36.28;;
66463;Laerm;56827;52.178;4.500;2024-02-28T00:25:37;32.15;30.98;33.20;;
66463;Laerm;56827;52.178;4.500;2024-02-28T00:25:47;32.07;30.13;36.39;;
66463;Laerm;56827;52.178;4.500;2024-02-28T00:25:57;31.84;30.52;36.10;;
66463;Laerm;56827;52.178;4.500;2024-02-28T00:26:07;32.19;30.67;35.95;;
66463;Laerm;56827;52.178;4.500;2024-02-28T00:26:18;32.26;30.99;39.22;;
66463;Laerm;56827;52.178;4.500;2024-02-28T00:26:28;31.87;30.59;37.27;;
66463;Laerm;56827;52.178;4.500;2024-02-28T00:26:41;31.62;30.04;33.48;;
66463;Laerm;56827;52.178;4.500;2024-02-28T00:26:52;31.56;29.96;35.58;;
66463;Laerm;56827;52.178;4.500;2024-02-28T00:27:02;31.62;30.15;36.11;;
66463;Laerm;56827;52.178;4.500;2024-02-28T00:27:13;31.42;30.13;36.40;;
66463;Laerm;56827;52.178;4.500;2024-02-28T00:27:23;31.41;29.93;37.02;;
66463;Laerm;56827;52.178;4.500;2024-02-28T00:27:33;31.45;30.26;33.37;;
66463;Laerm;56827;52.178;4.500;2024-02-28T00:27:44;31.78;30.12;36.77;;
66463;Laerm;56827;52.178;4.500;2024-02-28T00:27:55;31.53;30.28;32.98;;
66463;Laerm;56827;52.178;4.500;2024-02-28T00:28:06;31.66;29.92;36.83;;
66463;Laerm;56827;52.178;4.500;2024-02-28T00:28:16;40.39;30.39;54.12;;
66463;Laerm;56827;52.178;4.500;2024-02-28T00:28:26;40.76;30.74;53.78;;
66463;Laerm;56827;52.178;4.500;2024-02-28T00:28:36;31.49;30.13;34.28;;
66463;Laerm;56827;52.178;4.500;2024-02-28T00:28:47;31.69;30.38;36.76;;
66463;Laerm;56827;52.178;4.500;2024-02-28T00:28:57;31.61;30.20;33.84;;
66463;Laerm;56827;52.178;4.500;2024-02-28T00:29:07;31.33;30.17;33.17;;
66463;Laerm;56827;52.178;4.500;2024-02-28T00:29:20;31.34;29.83;35.90;;
66463;Laerm;56827;52.178;4.500;2024-02-28T00:29:30;31.79;30.12;36.83;;
66463;Laerm;56827;52.178;4.500;2024-02-28T00:29:40;32.42;30.39;36.61;;
66463;Laerm;56827;52.178;4.500;2024-02-28T00:29:50;32.67;31.26;34.95;;
66463;Laerm;56827;52.178;4.500;2024-02-28T00:30:01;32.57;30.63;34.90;;
66463;Laerm;56827;52.178;4.500;2024-02-28T00:30:11;32.54;31.07;36.30;;
66463;Laerm;56827;52.178;4.500;2024-02-28T00:30:21;32.86;31.28;34.62;;
66463;Laerm;56827;52.178;4.500;2024-02-28T00:30:32;32.88;31.20;36.30;;
66463;Laerm;56827;52.178;4.500;2024-02-28T00:30:42;34.52;32.17;40.26;;
66463;Laerm;56827;52.178;4.500;2024-02-28T00:30:53;36.60;32.28;48.15;;
66463;Laerm;56827;52.178;4.500;2024-02-28T00:31:03;44.53;34.97;55.87;;
66463;Laerm;56827;52.178;4.500;2024-02-28T00:31:13;40.50;35.55;47.64;;
66463;Laerm;56827;52.178;4.500;2024-02-28T00:31:23;36.39;32.70;43.18;;
66463;Laerm;56827;52.178;4.500;2024-02-28T00:31:34;32.88;30.56;38.32;;
66463;Laerm;56827;52.178;4.500;2024-02-28T00:31:44;31.98;30.14;34.34;;
66463;Laerm;56827;52.178;4.500;2024-02-28T00:31:54;31.98;30.48;35.69;;
66463;Laerm;56827;52.178;4.500;2024-02-28T00:32:04;31.94;30.25;33.94;;
66463;Laerm;56827;52.178;4.500;2024-02-28T00:32:15;32.39;30.77;35.85;;
66463;Laerm;56827;52.178;4.500;2024-02-28T00:32:25;32.04;30.77;33.21;;
66463;Laerm;56827;52.178;4.500;2024-02-28T00:32:35;31.90;30.28;36.41;;
66463;Laerm;56827;52.178;4.500;2024-02-28T00:32:45;31.43;29.97;34.38;;
66463;Laerm;56827;52.178;4.500;2024-02-28T00:32:56;31.49;30.33;36.83;;
66463;Laerm;56827;52.178;4.500;2024-02-28T00:33:06;31.90;30.29;33.64;;
66463;Laerm;56827;52.178;4.500;2024-02-28T00:33:16;31.84;30.25;36.20;;
66463;Laerm;56827;52.178;4.500;2024-02-28T00:33:26;31.57;29.97;32.70;;
66463;Laerm;56827;52.178;4.500;2024-02-28T00:33:37;31.72;30.33;37.03;;
66463;Laerm;56827;52.178;4.500;2024-02-28T00:33:47;31.79;30.46;36.41;;
66463;Laerm;56827;52.178;4.500;2024-02-28T00:33:57;31.84;30.42;33.28;;
66463;Laerm;56827;52.178;4.500;2024-02-28T00:34:07;31.74;29.75;33.79;;
66463;Laerm;56827;52.178;4.500;2024-02-28T00:34:18;31.74;30.21;33.35;;
66463;Laerm;56827;52.178;4.500;2024-02-28T00:34:29;31.89;30.09;36.44;;
66463;Laerm;56827;52.178;4.500;2024-02-28T00:34:39;31.77;30.24;34.19;;
66463;Laerm;56827;52.178;4.500;2024-02-28T00:34:49;31.84;30.40;35.57;;
66463;Laerm;56827;52.178;4.500;2024-02-28T00:34:59;32.64;30.85;37.31;;
66463;Laerm;56827;52.178;4.500;2024-02-28T00:35:10;33.19;31.60;38.65;;
66463;Laerm;56827;52.178;4.500;2024-02-28T00:35:20;32.83;30.61;39.06;;
66463;Laerm;56827;52.178;4.500;2024-02-28T00:35:31;31.94;30.53;33.73;;
66463;Laerm;56827;52.178;4.500;2024-02-28T00:35:43;32.72;31.19;36.51;;
66463;Laerm;56827;52.178;4.500;2024-02-28T00:35:53;32.22;30.73;33.80;;
66463;Laerm;56827;52.178;4.500;2024-02-28T00:36:04;31.97;30.84;33.27;;
66463;Laerm;56827;52.178;4.500;2024-02-28T00:36:14;32.06;30.22;37.15;;
66463;Laerm;56827;52.178;4.500;2024-02-28T00:36:25;31.98;30.46;35.92;;
66463;Laerm;56827;52.178;4.500;2024-02-28T00:36:35;32.07;30.84;35.31;;
66463;Laerm;56827;52.178;4.500;2024-02-28T00:36:45;32.04;30.49;34.20;;
66463;Laerm;56827;52.178;4.500;2024-02-28T00:36:56;32.01;30.65;34.78;;
66463;Laerm;56827;52.178;4.500;2024-02-28T00:37:07;31.94;30.70;35.48;;
66463;Laerm;56827;52.178;4.500;2024-02-28T00:37:17;32.59;30.42;34.84;;
66463;Laerm;56827;52.178;4.500;2024-02-28T00:37:27;32.16;30.41;33.80;;
66463;Laerm;56827;52.178;4.500;2024-02-28T00:37:37;32.26;30.09;33.76;;
66463;Laerm;56827;52.178;4.500;2024-02-28T00:37:47;32.04;30.40;35.86;;
66463;Laerm;56827;52.178;4.500;2024-02-28T00:37:58;32.15;30.66;33.89;;
66463;Laerm;56827;52.178;4.500;2024-02-28T00:38:08;32.05;30.52;35.70;;
66463;Laerm;56827;52.178;4.500;2024-02-28T00:38:18;31.98;30.47;35.16;;
66463;Laerm;56827;52.178;4.500;2024-02-28T00:38:31;32.05;30.17;35.32;;
66463;Laerm;56827;52.178;4.500;2024-02-28T00:38:42;32.25;30.77;34.75;;
66463;Laerm;56827;52.178;4.500;2024-02-28T00:38:52;32.27;30.64;36.01;;
66463;Laerm;56827;52.178;4.500;2024-02-28T00:39:03;32.60;30.86;36.00;;
66463;Laerm;56827;52.178;4.500;2024-02-28T00:39:14;37.11;30.40;50.59;;
66463;Laerm;56827;52.178;4.500;2024-02-28T00:39:24;39.72;30.66;51.69;;
66463;Laerm;56827;52.178;4.500;2024-02-28T00:39:34;37.90;30.27;51.93;;
66463;Laerm;56827;52.178;4.500;2024-02-28T00:39:45;33.21;30.61;47.16;;
66463;Laerm;56827;52.178;4.500;2024-02-28T00:39:55;31.80;30.50;33.12;;
66463;Laerm;56827;52.178;4.500;2024-02-28T00:40:05;31.47;29.99;36.56;;
66463;Laerm;56827;52.178;4.500;2024-02-28T00:40:16;31.48;30.25;34.58;;
66463;Laerm;56827;52.178;4.500;2024-02-28T00:40:26;32.24;30.54;35.12;;
66463;Laerm;56827;52.178;4.500;2024-02-28T00:40:36;32.34;30.68;34.30;;
66463;Laerm;56827;52.178;4.500;2024-02-28T00:40:46;31.59;30.22;33.40;;
66463;Laerm;56827;52.178;4.500;2024-02-28T00:40:57;31.73;30.49;35.14;;
66463;Laerm;56827;52.178;4.500;2024-02-28T00:41:07;31.38;30.07;32.61;;
66463;Laerm;56827;52.178;4.500;2024-02-28T00:41:17;31.59;30.44;33.24;;
66463;Laerm;56827;52.178;4.500;2024-02-28T00:41:27;31.87;30.61;36.23;;
66463;Laerm;56827;52.178;4.500;2024-02-28T00:41:38;31.94;30.14;33.94;;
66463;Laerm;56827;52.178;4.500;2024-02-28T00:41:48;32.00;30.38;36.36;;
66463;Laerm;56827;52.178;4.500;2024-02-28T00:41:58;32.12;30.49;33.63;;
66463;Laerm;56827;52.178;4.500;2024-02-28T00:42:08;32.26;30.66;35.94;;
66463;Laerm;56827;52.178;4.500;2024-02-28T00:42:19;32.14;30.92;33.42;;
66463;Laerm;56827;52.178;4.500;2024-02-28T00:42:29;32.42;30.77;35.03;;
66463;Laerm;56827;52.178;4.500;2024-02-28T00:42:39;32.28;30.88;35.09;;
66463;Laerm;56827;52.178;4.500;2024-02-28T00:42:50;32.24;30.66;36.82;;
66463;Laerm;56827;52.178;4.500;2024-02-28T00:43:00;31.83;30.50;33.41;;
66463;Laerm;56827;52.178;4.500;2024-02-28T00:43:11;31.57;30.22;36.31;;
66463;Laerm;56827;52.178;4.500;2024-02-28T00:43:21;32.51;30.46;35.95;;
66463;Laerm;56827;52.178;4.500;2024-02-28T00:43:31;33.27;31.68;40.11;;
66463;Laerm;56827;52.178;4.500;2024-02-28T00:43:41;33.16;31.52;36.97;;
66463;Laerm;56827;52.178;4.500;2024-02-28T00:43:52;32.60;30.76;36.63;;
66463;Laerm;56827;52.178;4.500;2024-02-28T00:44:02;31.87;30.57;33.98;;
66463;Laerm;56827;52.178;4.500;2024-02-28T00:44:12;31.98;30.59;33.76;;
66463;Laerm;56827;52.178;4.500;2024-02-28T00:44:22;31.89;29.99;35.53;;
66463;Laerm;56827;52.178;4.500;2024-02-28T00:44:33;31.90;30.40;35.87;;
66463;Laerm;56827;52.178;4.500;2024-02-28T00:44:43;31.91;30.76;33.48;;
66463;Laerm;56827;52.178;4.500;2024-02-28T00:44:54;31.92;30.58;35.00;;
66463;Laerm;56827;52.178;4.500;2024-02-28T00:45:04;31.80;30.60;36.32;;
66463;Laerm;56827;52.178;4.500;2024-02-28T00:45:14;31.41;29.90;35.10;;
66463;Laerm;56827;52.178;4.500;2024-02-28T00:45:24;32.26;30.42;35.11;;
66463;Laerm;56827;52.178;4.500;2024-02-28T00:45:35;32.33;30.85;35.31;;
66463;Laerm;56827;52.178;4.500;2024-02-28T00:45:45;31.87;30.52;37.12;;
66463;Laerm;56827;52.178;4.500;2024-02-28T00:45:55;31.54;30.29;34.41;;
66463;Laerm;56827;52.178;4.500;2024-02-28T00:46:08;31.61;30.07;34.50;;
66463;Laerm;56827;52.178;4.500;2024-02-28T00:46:22;31.46;29.92;36.14;;
66463;Laerm;56827;52.178;4.500;2024-02-28T00:46:32;31.95;30.34;34.87;;
66463;Laerm;56827;52.178;4.500;2024-02-28T00:46:42;32.44;30.13;35.11;;
66463;Laerm;56827;52.178;4.500;2024-02-28T00:46:53;32.68;30.66;36.51;;
66463;Laerm;56827;52.178;4.500;2024-02-28T00:47:03;32.95;31.09;35.68;;
66463;Laerm;56827;52.178;4.500;2024-02-28T00:47:13;32.32;30.81;35.90;;
66463;Laerm;56827;52.178;4.500;2024-02-28T00:47:23;32.11;30.83;34.82;;
66463;Laerm;56827;52.178;4.500;2024-02-28T00:47:34;32.90;31.20;34.93;;
66463;Laerm;56827;52.178;4.500;2024-02-28T00:47:44;33.19;31.20;34.61;;
66463;Laerm;56827;52.178;4.500;2024-02-28T00:47:54;32.94;31.11;36.60;;
66463;Laerm;56827;52.178;4.500;2024-02-28T00:48:05;32.31;30.67;35.51;;
66463;Laerm;56827;52.178;4.500;2024-02-28T00:48:15;32.30;30.79;37.28;;
66463;Laerm;56827;52.178;4.500;2024-02-28T00:48:25;32.02;30.22;33.52;;
66463;Laerm;56827;52.178;4.500;2024-02-28T00:48:36;31.99;30.53;33.67;;
66463;Laerm;56827;52.178;4.500;2024-02-28T00:48:47;32.34;30.92;37.11;;
66463;Laerm;56827;52.178;4.500;2024-02-28T00:48:57;32.25;30.76;33.64;;
66463;Laerm;56827;52.178;4.500;2024-02-28T00:49:07;32.68;31.18;36.47;;
66463;Laerm;56827;52.178;4.500;2024-02-28T00:49:17;32.80;31.15;36.20;;
66463;Laerm;56827;52.178;4.500;2024-02-28T00:49:30;33.63;31.41;37.55;;
66463;Laerm;56827;52.178;4.500;2024-02-28T00:49:40;33.64;31.53;37.20;;
66463;Laerm;56827;52.178;4.500;2024-02-28T00:49:51;32.89;30.64;35.77;;
66463;Laerm;56827;52.178;4.500;2024-02-28T00:50:01;31.86;30.10;35.77;;
66463;Laerm;56827;52.178;4.500;2024-02-28T00:50:14;32.81;30.36;37.12;;
66463;Laerm;56827;52.178;4.500;2024-02-28T00:50:24;36.39;32.35;43.71;;
66463;Laerm;56827;52.178;4.500;2024-02-28T00:50:35;36.37;32.78;39.64;;
66463;Laerm;56827;52.178;4.500;2024-02-28T00:50:45;35.66;33.18;39.31;;
66463;Laerm;56827;52.178;4.500;2024-02-28T00:50:55;33.86;31.09;37.86;;
66463;Laerm;56827;52.178;4.500;2024-02-28T00:51:05;32.12;30.45;35.88;;
66463;Laerm;56827;52.178;4.500;2024-02-28T00:51:16;31.68;30.41;35.65;;
66463;Laerm;56827;52.178;4.500;2024-02-28T00:51:26;32.10;30.25;34.81;;
66463;Laerm;56827;52.178;4.500;2024-02-28T00:51:36;32.15;30.54;36.68;;
66463;Laerm;56827;52.178;4.500;2024-02-28T00:51:47;32.89;31.05;34.32;;
66463;Laerm;56827;52.178;4.500;2024-02-28T00:51:57;32.13;30.29;34.24;;
66463;Laerm;56827;52.178;4.500;2024-02-28T00:52:07;31.73;30.17;40.47;;
66463;Laerm;56827;52.178;4.500;2024-02-28T00:52:18;31.42;29.94;36.83;;
66463;Laerm;56827;52.178;4.500;2024-02-28T00:52:28;31.50;30.26;35.02;;
66463;Laerm;56827;52.178;4.500;2024-02-28T00:52:38;31.76;30.29;33.17;;
66463;Laerm;56827;52.178;4.500;2024-02-28T00:52:49;31.93;30.21;36.56;;
66463;Laerm;56827;52.178;4.500;2024-02-28T00:52:59;31.63;30.34;32.88;;
66463;Laerm;56827;52.178;4.500;2024-02-28T00:53:09;31.52;29.65;36.23;;
66463;Laerm;56827;52.178;4.500;2024-02-28T00:53:20;32.39;30.87;34.91;;
66463;Laerm;56827;52.178;4.500;2024-02-28T00:53:30;32.60;30.81;36.17;;
66463;Laerm;56827;52.178;4.500;2024-02-28T00:53:40;33.35;31.22;35.84;;
66463;Laerm;56827;52.178;4.500;2024-02-28T00:53:53;32.02;30.68;36.98;;
66463;Laerm;56827;52.178;4.500;2024-02-28T00:54:03;31.98;30.20;36.61;;
66463;Laerm;56827;52.178;4.500;2024-02-28T00:54:13;31.94;30.31;37.75;;
66463;Laerm;56827;52.178;4.500;2024-02-28T00:54:23;32.48;30.59;36.70;;
66463;Laerm;56827;52.178;4.500;2024-02-28T00:54:35;32.49;30.84;37.17;;
66463;Laerm;56827;52.178;4.500;2024-02-28T00:54:45;31.99;30.13;34.30;;
66463;Laerm;56827;52.178;4.500;2024-02-28T00:54:55;31.64;29.83;33.67;;
66463;Laerm;56827;52.178;4.500;2024-02-28T00:55:06;31.33;30.15;34.16;;
66463;Laerm;56827;52.178;4.500;2024-02-28T00:55:16;32.04;30.05;34.95;;
66463;Laerm;56827;52.178;4.500;2024-02-28T00:55:26;32.33;30.69;33.68;;
66463;Laerm;56827;52.178;4.500;2024-02-28T00:55:36;32.01;30.46;34.92;;
66463;Laerm;56827;52.178;4.500;2024-02-28T00:55:47;31.34;29.83;35.22;;
66463;Laerm;56827;52.178;4.500;2024-02-28T00:55:57;31.75;29.99;40.55;;
66463;Laerm;56827;52.178;4.500;2024-02-28T00:56:07;31.75;30.53;33.52;;
66463;Laerm;56827;52.178;4.500;2024-02-28T00:56:17;31.84;30.53;35.99;;
66463;Laerm;56827;52.178;4.500;2024-02-28T00:56:27;31.49;29.82;33.04;;
66463;Laerm;56827;52.178;4.500;2024-02-28T00:56:38;31.65;30.20;36.21;;
66463;Laerm;56827;52.178;4.500;2024-02-28T00:56:48;31.57;30.34;36.13;;
66463;Laerm;56827;52.178;4.500;2024-02-28T00:56:58;31.48;29.94;33.15;;
66463;Laerm;56827;52.178;4.500;2024-02-28T00:57:09;31.97;30.51;35.97;;
66463;Laerm;56827;52.178;4.500;2024-02-28T00:57:20;32.01;30.28;34.64;;
66463;Laerm;56827;52.178;4.500;2024-02-28T00:57:30;32.18;30.70;34.23;;
66463;Laerm;56827;52.178;4.500;2024-02-28T00:57:40;32.43;30.77;36.53;;
66463;Laerm;56827;52.178;4.500;2024-02-28T00:57:51;32.33;30.69;36.25;;
66463;Laerm;56827;52.178;4.500;2024-02-28T00:58:01;31.90;30.37;36.31;;
66463;Laerm;56827;52.178;4.500;2024-02-28T00:58:11;31.95;30.25;36.29;;
66463;Laerm;56827;52.178;4.500;2024-02-28T00:58:21;31.55;29.88;36.37;;
66463;Laerm;56827;52.178;4.500;2024-02-28T00:58:31;31.67;30.27;37.71;;
66463;Laerm;56827;52.178;4.500;2024-02-28T00:58:43;31.87;30.05;35.91;;